Time;durP1;ratioP1;P1;durP2;ratioP2;P2;SDS_P1;SDS_P2;PMS_P1;PMS_P2;Temp;Humidity;BMP_temperature;BMP_pressure;BME280_temperature;BME280_humidity;BME280_pressure;Samples;Min_cycle;Max_cycle;Signal;HPM_P1;HPM_P2
2023/03/04 00:00:27;;;;;;;10.52;7.93;;;;;;;;;;5072824;28;20223;-81
2023/03/04 00:02:54;;;;;;;8.02;7.20;;;;;;;;;;5072547;28;20283;-81
2023/03/04 00:05:22;;;;;;;10.40;7.80;;;;;;;;;;5072358;28;20292;-82
2023/03/04 00:07:49;;;;;;;12.60;8.15;;;;;;;;;;5072615;28;20283;-82
2023/03/04 00:10:17;;;;;;;8.82;7.13;;;;;;;;;;5072405;28;20306;-82
2023/03/04 00:12:44;;;;;;;10.85;8.52;;;;;;;;;;5072539;28;20295;-83
2023/03/04 00:15:12;;;;;;;10.20;7.90;;;;;;;;;;5072790;28;20288;-81
2023/03/04 00:17:41;;;;;;;10.63;7.65;;;;;;;;;;5072434;28;20296;-80
2023/03/04 00:20:10;;;;;;;9.55;8.43;;;;;;;;;;5072209;28;20651;-82
2023/03/04 00:22:38;;;;;;;9.88;7.65;;;;;;;;;;5072324;28;20287;-81
2023/03/04 00:25:07;;;;;;;9.45;7.72;;;;;;;;;;5072567;28;20304;-83
2023/03/04 00:27:34;;;;;;;8.40;7.47;;;;;;;;;;5071955;28;20680;-83
2023/03/04 00:30:02;;;;;;;9.55;8.57;;;;;;;;;;5073736;28;20378;-81
2023/03/04 00:32:30;;;;;;;12.73;9.35;;;;;;;;;;5075632;28;20211;-83
2023/03/04 00:34:59;;;;;;;9.30;8.02;;;;;;;;;;5075869;28;20228;-83
2023/03/04 00:37:26;;;;;;;16.63;11.65;;;;;;;;;;5075706;28;20288;-80
2023/03/04 00:39:54;;;;;;;9.15;7.50;;;;;;;;;;5075515;28;20288;-83
2023/03/04 00:42:21;;;;;;;17.33;13.48;;;;;;;;;;5076613;28;20708;-82
2023/03/04 00:44:50;;;;;;;12.38;9.75;;;;;;;;;;5076255;28;20649;-81
2023/03/04 00:47:17;;;;;;;14.02;10.02;;;;;;;;;;5076356;28;20610;-82
2023/03/04 00:49:45;;;;;;;14.18;10.07;;;;;;;;;;5075532;28;20632;-82
2023/03/04 00:52:14;;;;;;;8.60;7.43;;;;;;;;;;5075763;28;20897;-83
2023/03/04 00:54:41;;;;;;;9.45;6.97;;;;;;;;;;5076153;28;20201;-82
2023/03/04 00:57:09;;;;;;;9.73;7.53;;;;;;;;;;5075981;28;20207;-82
2023/03/04 00:59:36;;;;;;;8.23;7.43;;;;;;;;;;5075348;28;20300;-83
2023/03/04 01:02:04;;;;;;;11.18;7.93;;;;;;;;;;5075870;28;20312;-83
2023/03/04 01:04:31;;;;;;;11.00;7.00;;;;;;;;;;5075857;28;20561;-81
2023/03/04 01:06:59;;;;;;;9.05;7.47;;;;;;;;;;5075882;28;20296;-83
2023/03/04 01:09:27;;;;;;;8.75;7.28;;;;;;;;;;5075242;28;20223;-83
2023/03/04 01:11:55;;;;;;;8.85;7.82;;;;;;;;;;5076048;28;20225;-81
2023/03/04 01:14:23;;;;;;;11.02;6.82;;;;;;;;;;5075856;28;20201;-82
2023/03/04 01:16:50;;;;;;;10.45;7.38;;;;;;;;;;5075654;28;20205;-82
2023/03/04 01:19:18;;;;;;;10.80;6.53;;;;;;;;;;5075143;28;20296;-82
2023/03/04 01:21:45;;;;;;;7.93;5.97;;;;;;;;;;5075990;28;20217;-82
2023/03/04 01:24:13;;;;;;;9.65;6.82;;;;;;;;;;5075019;28;20284;-81
2023/03/04 01:26:42;;;;;;;9.30;6.30;;;;;;;;;;5074555;28;20201;-82
2023/03/04 01:29:09;;;;;;;10.68;6.57;;;;;;;;;;5074880;28;20205;-82
2023/03/04 01:31:36;;;;;;;9.13;5.55;;;;;;;;;;5074835;28;20316;-82
2023/03/04 01:34:04;;;;;;;9.80;7.68;;;;;;;;;;5074911;28;20291;-83
2023/03/04 01:36:31;;;;;;;12.02;7.10;;;;;;;;;;5074391;28;20197;-81
2023/03/04 01:38:59;;;;;;;8.52;5.97;;;;;;;;;;5074398;28;20292;-83
2023/03/04 01:41:27;;;;;;;9.98;6.40;;;;;;;;;;5073917;28;20274;-82
2023/03/04 01:43:59;;;;;;;12.27;6.88;;;;;;;;;;5075018;28;20201;-83
2023/03/04 01:46:27;;;;;;;9.70;6.00;;;;;;;;;;5074869;28;20193;-81
2023/03/04 01:48:54;;;;;;;11.38;7.43;;;;;;;;;;5074653;28;20256;-81
2023/03/04 01:51:22;;;;;;;12.40;6.72;;;;;;;;;;5073929;28;20316;-80
2023/03/04 01:53:53;;;;;;;10.35;5.93;;;;;;;;;;5074904;28;20299;-81
2023/03/04 01:56:26;;;;;;;9.38;5.38;;;;;;;;;;5074668;28;20533;-83
2023/03/04 01:59:14;;;;;;;10.60;5.72;;;;;;;;;;5074207;28;20197;-82
2023/03/04 02:01:45;;;;;;;7.32;5.63;;;;;;;;;;5074288;28;20217;-82
2023/03/04 02:04:13;;;;;;;9.95;5.78;;;;;;;;;;5074101;28;20678;-82
2023/03/04 02:06:42;;;;;;;15.73;6.50;;;;;;;;;;5073747;28;20204;-83
2023/03/04 02:09:10;;;;;;;9.23;6.10;;;;;;;;;;5073866;28;20197;-82
2023/03/04 02:11:39;;;;;;;8.25;5.32;;;;;;;;;;5073934;28;20316;-83
2023/03/04 02:14:07;;;;;;;12.20;6.43;;;;;;;;;;5074364;28;20287;-83
2023/03/04 02:16:36;;;;;;;6.78;4.88;;;;;;;;;;5074204;28;20211;-81
2023/03/04 02:19:07;;;;;;;8.20;5.43;;;;;;;;;;5073939;28;20200;-83
2023/03/04 02:21:35;;;;;;;11.60;5.30;;;;;;;;;;5074407;28;20219;-83
2023/03/04 02:24:11;;;;;;;14.05;5.90;;;;;;;;;;5073736;28;20285;-81
2023/03/04 02:26:42;;;;;;;9.70;5.43;;;;;;;;;;5074021;28;20207;-82
2023/03/04 02:29:10;;;;;;;14.63;6.45;;;;;;;;;;5074280;28;20250;-81
2023/03/04 02:31:40;;;;;;;13.15;5.97;;;;;;;;;;5073703;28;20717;-82
2023/03/04 02:34:12;;;;;;;7.15;5.20;;;;;;;;;;5073548;28;20207;-83
2023/03/04 02:36:40;;;;;;;8.45;5.10;;;;;;;;;;5073060;28;20201;-82
2023/03/04 02:39:25;;;;;;;12.27;5.35;;;;;;;;;;5072692;28;20653;-82
2023/03/04 02:41:56;;;;;;;15.57;6.32;;;;;;;;;;5073772;28;20707;-81
2023/03/04 02:44:25;;;;;;;13.48;5.45;;;;;;;;;;5073821;28;20189;-81
2023/03/04 02:46:54;;;;;;;11.82;6.05;;;;;;;;;;5072524;28;20197;-82
2023/03/04 02:49:23;;;;;;;7.07;4.72;;;;;;;;;;5074020;28;20295;-81
2023/03/04 02:51:52;;;;;;;8.35;4.95;;;;;;;;;;5073352;28;20877;-82
2023/03/04 02:54:23;;;;;;;5.55;4.25;;;;;;;;;;5072641;28;20197;-82
2023/03/04 02:56:58;;;;;;;10.30;5.68;;;;;;;;;;5073783;28;20211;-82
2023/03/04 02:59:25;;;;;;;7.93;4.97;;;;;;;;;;5073770;28;20191;-82
2023/03/04 03:01:53;;;;;;;6.70;4.30;;;;;;;;;;5073473;28;20217;-82
2023/03/04 03:04:22;;;;;;;15.13;5.30;;;;;;;;;;5073324;28;20197;-82
2023/03/04 03:06:49;;;;;;;8.00;5.32;;;;;;;;;;5073391;28;20200;-82
2023/03/04 03:09:17;;;;;;;13.88;5.55;;;;;;;;;;5072926;28;20296;-82
2023/03/04 03:11:44;;;;;;;6.90;4.35;;;;;;;;;;5073375;28;20225;-82
2023/03/04 03:14:13;;;;;;;8.02;5.28;;;;;;;;;;5073560;28;20200;-81
2023/03/04 03:16:42;;;;;;;9.32;5.30;;;;;;;;;;5073437;28;20291;-82
2023/03/04 03:19:09;;;;;;;8.13;4.70;;;;;;;;;;5073474;28;20254;-83
2023/03/04 03:21:37;;;;;;;11.05;5.40;;;;;;;;;;5073156;28;20319;-82
2023/03/04 03:26:36;;;;;;;8.73;5.28;;;;;;;;;;5072605;28;20278;-82
2023/03/04 03:29:03;;;;;;;13.23;6.07;;;;;;;;;;5066936;28;20261;-82
2023/03/04 03:31:32;;;;;;;9.65;5.18;;;;;;;;;;5073965;28;20315;-81
2023/03/04 03:34:00;;;;;;;15.40;7.18;;;;;;;;;;5073735;28;20817;-82
2023/03/04 03:36:27;;;;;;;13.65;4.70;;;;;;;;;;5053875;28;20260;-82
2023/03/04 03:38:55;;;;;;;7.88;5.00;;;;;;;;;;5053175;28;20204;-82
2023/03/04 03:41:22;;;;;;;6.53;4.57;;;;;;;;;;5053371;28;20221;-82
2023/03/04 03:43:50;;;;;;;8.65;4.82;;;;;;;;;;5053132;28;20338;-81
2023/03/04 03:46:17;;;;;;;6.03;4.40;;;;;;;;;;5053204;28;20317;-82
2023/03/04 03:48:46;;;;;;;8.75;5.18;;;;;;;;;;5052589;28;20289;-82
2023/03/04 03:51:13;;;;;;;10.15;5.20;;;;;;;;;;5053395;28;20261;-82
2023/03/04 03:53:41;;;;;;;12.73;5.15;;;;;;;;;;5053065;28;20225;-82
2023/03/04 03:56:08;;;;;;;11.18;4.97;;;;;;;;;;5053548;28;20249;-81
2023/03/04 03:58:36;;;;;;;12.68;5.28;;;;;;;;;;5053740;28;20589;-82
2023/03/04 04:01:03;;;;;;;12.95;4.22;;;;;;;;;;5054108;28;20208;-82
2023/03/04 04:03:31;;;;;;;13.02;5.28;;;;;;;;;;5053463;28;20449;-83
2023/03/04 04:06:00;;;;;;;10.02;5.30;;;;;;;;;;5056001;28;20232;-83
2023/03/04 04:08:27;;;;;;;8.65;4.25;;;;;;;;;;5057541;28;20206;-83
2023/03/04 04:10:55;;;;;;;10.55;4.68;;;;;;;;;;5057553;28;20633;-81
2023/03/04 04:13:22;;;;;;;7.15;3.92;;;;;;;;;;5057336;28;20640;-81
2023/03/04 04:15:54;;;;;;;8.30;3.58;;;;;;;;;;5056626;28;20232;-81
2023/03/04 04:18:22;;;;;;;11.25;4.15;;;;;;;;;;5057290;28;20201;-82
2023/03/04 04:20:51;;;;;;;9.50;4.18;;;;;;;;;;5056836;28;20205;-81
2023/03/04 04:23:20;;;;;;;13.15;5.22;;;;;;;;;;5056763;28;20208;-81
2023/03/04 04:25:47;;;;;;;8.50;3.08;;;;;;;;;;5056924;28;20324;-81
2023/03/04 04:28:15;;;;;;;5.88;3.45;;;;;;;;;;5056431;28;20229;-81
2023/03/04 04:30:43;;;;;;;8.43;4.10;;;;;;;;;;5056853;28;20662;-81
2023/03/04 04:33:10;;;;;;;6.20;4.53;;;;;;;;;;5056235;28;20289;-82
2023/03/04 04:35:38;;;;;;;7.30;3.58;;;;;;;;;;5056079;28;20320;-82
2023/03/04 04:38:06;;;;;;;7.53;3.85;;;;;;;;;;5056390;28;20308;-81
2023/03/04 04:40:35;;;;;;;10.38;4.00;;;;;;;;;;5056365;28;20204;-81
2023/03/04 04:43:02;;;;;;;11.23;4.40;;;;;;;;;;5056600;28;20600;-81
2023/03/04 04:45:30;;;;;;;7.75;4.70;;;;;;;;;;5055830;28;20228;-81
2023/03/04 04:47:57;;;;;;;13.23;4.45;;;;;;;;;;5055625;28;20206;-82
2023/03/04 04:50:25;;;;;;;7.65;3.95;;;;;;;;;;5055654;28;20201;-82
2023/03/04 04:52:53;;;;;;;11.13;4.75;;;;;;;;;;5055994;28;20723;-81
2023/03/04 04:55:21;;;;;;;7.60;4.95;;;;;;;;;;5055667;28;20316;-81
2023/03/04 04:57:50;;;;;;;10.43;4.35;;;;;;;;;;5056009;28;20585;-81
2023/03/04 05:00:19;;;;;;;9.50;4.25;;;;;;;;;;5035986;28;20289;-81
2023/03/04 05:02:46;;;;;;;12.32;3.95;;;;;;;;;;5036398;28;20230;-82
2023/03/04 05:05:14;;;;;;;7.90;3.75;;;;;;;;;;5036002;28;20305;-81
2023/03/04 05:07:41;;;;;;;10.02;4.70;;;;;;;;;;5036735;28;20684;-84
2023/03/04 05:10:11;;;;;;;10.75;3.90;;;;;;;;;;5036229;28;20282;-81
2023/03/04 05:12:38;;;;;;;9.45;3.78;;;;;;;;;;5036331;28;20309;-82
2023/03/04 05:15:09;;;;;;;7.90;3.53;;;;;;;;;;5036072;28;20533;-82
2023/03/04 05:17:36;;;;;;;15.65;3.72;;;;;;;;;;5034794;28;20205;-82
2023/03/04 05:20:06;;;;;;;10.45;4.72;;;;;;;;;;5035810;28;20293;-81
2023/03/04 05:22:33;;;;;;;8.95;3.83;;;;;;;;;;5036047;28;20234;-81
2023/03/04 05:25:01;;;;;;;8.35;3.70;;;;;;;;;;5035846;28;20266;-82
2023/03/04 05:27:28;;;;;;;7.65;3.90;;;;;;;;;;5035526;28;20259;-81
2023/03/04 05:29:59;;;;;;;9.77;3.65;;;;;;;;;;5052867;28;20677;-83
2023/03/04 05:32:28;;;;;;;14.68;3.70;;;;;;;;;;5055934;28;20206;-82
2023/03/04 05:34:56;;;;;;;7.15;3.15;;;;;;;;;;5055976;28;20226;-81
2023/03/04 05:37:23;;;;;;;10.88;4.15;;;;;;;;;;5055657;28;20206;-82
2023/03/04 05:39:51;;;;;;;13.75;5.10;;;;;;;;;;5077990;22;20325;-79
2023/03/04 05:42:18;;;;;;;8.18;3.30;;;;;;;;;;5057377;28;20205;-81
2023/03/04 05:44:45;;;;;;;6.93;3.28;;;;;;;;;;5057754;28;20752;-82
2023/03/04 05:47:13;;;;;;;9.07;3.47;;;;;;;;;;5056435;28;20293;-81
2023/03/04 05:49:43;;;;;;;4.93;2.97;;;;;;;;;;5054788;28;20288;-82
2023/03/04 05:52:10;;;;;;;12.07;4.18;;;;;;;;;;5056730;28;20728;-82
2023/03/04 05:54:38;;;;;;;11.48;4.55;;;;;;;;;;5057349;28;20320;-82
2023/03/04 05:57:05;;;;;;;4.28;3.42;;;;;;;;;;5058143;28;20293;-80
2023/03/04 05:59:33;;;;;;;5.97;3.63;;;;;;;;;;5057511;28;20260;-82
2023/03/04 06:02:00;;;;;;;8.32;3.65;;;;;;;;;;5057864;28;20244;-81
2023/03/04 06:04:28;;;;;;;8.52;3.80;;;;;;;;;;5057932;28;20225;-81
2023/03/04 06:06:56;;;;;;;6.72;3.28;;;;;;;;;;5055222;28;20237;-80
2023/03/04 06:09:24;;;;;;;6.57;3.15;;;;;;;;;;5057493;28;20285;-80
2023/03/04 06:11:51;;;;;;;5.43;3.80;;;;;;;;;;5057937;28;20232;-81
2023/03/04 06:14:19;;;;;;;13.32;4.15;;;;;;;;;;5058215;28;20308;-82
2023/03/04 06:16:47;;;;;;;10.75;3.60;;;;;;;;;;5057927;28;20289;-83
2023/03/04 06:19:14;;;;;;;10.30;3.88;;;;;;;;;;5055968;28;20237;-81
2023/03/04 06:21:42;;;;;;;6.53;3.78;;;;;;;;;;5056898;28;20209;-79
2023/03/04 06:24:10;;;;;;;8.10;3.50;;;;;;;;;;5057770;28;20221;-82
2023/03/04 06:26:38;;;;;;;5.43;3.17;;;;;;;;;;5056261;28;20294;-81
2023/03/04 06:29:06;;;;;;;7.40;3.33;;;;;;;;;;5046497;28;20212;-82
2023/03/04 06:31:33;;;;;;;5.80;3.42;;;;;;;;;;5038323;28;20274;-82
2023/03/04 06:34:01;;;;;;;6.70;2.88;;;;;;;;;;5036836;28;20230;-81
2023/03/04 06:36:28;;;;;;;7.82;3.90;;;;;;;;;;5036264;28;20289;-81
2023/03/04 06:38:56;;;;;;;3.65;2.53;;;;;;;;;;5034506;28;20293;-83
2023/03/04 06:41:24;;;;;;;8.68;4.03;;;;;;;;;;5037007;28;20301;-82
2023/03/04 06:43:55;;;;;;;7.88;2.80;;;;;;;;;;5036769;28;20863;-82
2023/03/04 06:46:22;;;;;;;6.38;2.50;;;;;;;;;;5036013;28;20230;-82
2023/03/04 06:48:50;;;;;;;5.88;3.10;;;;;;;;;;5034238;28;20202;-82
2023/03/04 06:51:18;;;;;;;6.15;2.78;;;;;;;;;;5038592;28;20264;-83
2023/03/04 06:53:46;;;;;;;6.65;2.75;;;;;;;;;;5038040;28;20603;-83
2023/03/04 06:56:15;;;;;;;4.93;2.17;;;;;;;;;;5036135;28;20270;-83
2023/03/04 06:58:44;;;;;;;4.13;2.65;;;;;;;;;;5036084;28;20209;-81
2023/03/04 07:01:15;;;;;;;5.03;3.20;;;;;;;;;;5034775;28;20313;-82
2023/03/04 07:03:43;;;;;;;6.78;2.60;;;;;;;;;;5035031;28;20593;-82
2023/03/04 07:06:12;;;;;;;5.03;2.17;;;;;;;;;;5034481;28;20684;-81
2023/03/04 07:08:40;;;;;;;4.55;2.70;;;;;;;;;;5037013;28;20202;-81
2023/03/04 07:11:07;;;;;;;4.47;2.33;;;;;;;;;;5040723;28;20609;-81
2023/03/04 07:13:37;;;;;;;7.55;2.85;;;;;;;;;;5055517;28;20316;-80
2023/03/04 07:16:06;;;;;;;9.65;3.47;;;;;;;;;;5057434;28;20216;-81
2023/03/04 07:18:34;;;;;;;5.75;2.97;;;;;;;;;;5054220;28;20270;-82
2023/03/04 07:21:01;;;;;;;6.47;2.33;;;;;;;;;;5055541;28;20253;-81
2023/03/04 07:23:29;;;;;;;6.65;2.70;;;;;;;;;;5057128;28;20212;-80
2023/03/04 07:25:56;;;;;;;4.50;2.33;;;;;;;;;;5057195;28;20292;-81
2023/03/04 07:28:24;;;;;;;4.63;2.17;;;;;;;;;;5051493;28;20212;-80
2023/03/04 07:30:51;;;;;;;4.68;2.45;;;;;;;;;;5036362;28;20229;-81
2023/03/04 07:33:20;;;;;;;5.30;1.98;;;;;;;;;;5036142;28;20876;-83
2023/03/04 07:35:48;;;;;;;9.35;3.15;;;;;;;;;;5033757;28;20804;-81
2023/03/04 07:38:15;;;;;;;3.25;2.15;;;;;;;;;;5034965;28;20289;-80
2023/03/04 07:40:43;;;;;;;2.63;2.00;;;;;;;;;;5039756;28;20230;-82
2023/03/04 07:43:12;;;;;;;5.60;2.55;;;;;;;;;;5041770;28;20741;-84
2023/03/04 07:45:40;;;;;;;5.95;3.33;;;;;;;;;;5042141;28;20285;-82
2023/03/04 07:48:08;;;;;;;8.70;2.30;;;;;;;;;;5040573;28;20264;-81
2023/03/04 07:50:36;;;;;;;5.05;1.88;;;;;;;;;;5039147;28;20294;-82
2023/03/04 07:53:04;;;;;;;2.85;1.73;;;;;;;;;;5040848;28;20305;-81
2023/03/04 07:55:32;;;;;;;6.30;2.35;;;;;;;;;;5039832;28;20317;-81
2023/03/04 07:57:59;;;;;;;7.07;2.28;;;;;;;;;;5041467;28;20209;-83
2023/03/04 08:00:27;;;;;;;2.00;1.80;;;;;;;;;;5058973;28;20316;-82
2023/03/04 08:02:54;;;;;;;5.20;2.08;;;;;;;;;;5059865;28;20208;-81
2023/03/04 08:05:22;;;;;;;3.92;1.83;;;;;;;;;;5057669;28;20282;-82
2023/03/04 08:07:50;;;;;;;3.15;2.22;;;;;;;;;;5058609;28;20233;-84
2023/03/04 08:10:18;;;;;;;5.55;2.00;;;;;;;;;;5058195;28;20313;-83
2023/03/04 08:12:45;;;;;;;4.30;1.92;;;;;;;;;;5057752;28;20205;-83
2023/03/04 08:15:13;;;;;;;4.50;1.83;;;;;;;;;;5057797;28;20293;-84
2023/03/04 08:17:40;;;;;;;2.00;1.80;;;;;;;;;;5057944;28;20293;-81
2023/03/04 08:20:10;;;;;;;4.07;1.98;;;;;;;;;;5056553;28;20312;-83
2023/03/04 08:22:37;;;;;;;4.85;2.28;;;;;;;;;;5057772;28;20212;-83
2023/03/04 08:25:07;;;;;;;3.33;2.15;;;;;;;;;;5057805;28;20280;-81
2023/03/04 08:27:36;;;;;;;5.35;2.92;;;;;;;;;;5057741;28;20264;-83
2023/03/04 08:30:04;;;;;;;6.35;3.10;;;;;;;;;;5057955;28;20226;-81
2023/03/04 08:32:31;;;;;;;3.92;2.90;;;;;;;;;;5057540;28;20201;-83
2023/03/04 08:35:01;;;;;;;4.00;2.80;;;;;;;;;;5055480;28;20232;-81
2023/03/04 08:37:29;;;;;;;3.28;2.35;;;;;;;;;;5055734;28;20198;-81
2023/03/04 08:39:56;;;;;;;4.25;1.90;;;;;;;;;;5055835;28;20235;-82
2023/03/04 08:42:25;;;;;;;4.97;2.65;;;;;;;;;;5057938;28;20648;-80
2023/03/04 08:44:53;;;;;;;2.70;1.73;;;;;;;;;;5057945;28;20202;-81
2023/03/04 08:47:20;;;;;;;2.92;2.20;;;;;;;;;;5057371;28;20229;-83
2023/03/04 08:49:48;;;;;;;3.42;1.67;;;;;;;;;;5056870;28;20308;-84
2023/03/04 08:52:15;;;;;;;4.28;2.10;;;;;;;;;;5056890;28;20649;-82
2023/03/04 08:54:43;;;;;;;1.25;1.15;;;;;;;;;;5057971;28;20317;-84
2023/03/04 08:57:10;;;;;;;1.58;1.48;;;;;;;;;;5058337;28;20233;-84
2023/03/04 08:59:39;;;;;;;3.85;1.90;;;;;;;;;;5057121;28;20732;-82
2023/03/04 09:02:06;;;;;;;2.75;1.83;;;;;;;;;;5058622;28;20644;-84
2023/03/04 09:04:34;;;;;;;2.70;1.80;;;;;;;;;;5056390;28;20201;-81
2023/03/04 09:07:01;;;;;;;2.85;1.90;;;;;;;;;;5055288;28;20201;-81
2023/03/04 09:09:29;;;;;;;3.85;2.33;;;;;;;;;;5055004;28;20277;-84
2023/03/04 09:11:56;;;;;;;7.60;2.80;;;;;;;;;;5054758;28;20248;-81
2023/03/04 09:14:24;;;;;;;2.63;2.40;;;;;;;;;;5054883;28;20205;-81
2023/03/04 09:16:52;;;;;;;3.70;2.22;;;;;;;;;;5054590;28;20704;-83
2023/03/04 09:19:20;;;;;;;6.03;2.38;;;;;;;;;;5054709;28;20664;-80
2023/03/04 09:21:47;;;;;;;2.22;1.40;;;;;;;;;;5055193;28;20202;-80
2023/03/04 09:24:15;;;;;;;2.38;1.60;;;;;;;;;;5055598;28;20209;-81
2023/03/04 09:26:44;;;;;;;2.55;1.58;;;;;;;;;;5053518;28;20202;-83
2023/03/04 09:29:12;;;;;;;2.20;1.40;;;;;;;;;;5046223;28;20301;-80
2023/03/04 09:31:39;;;;;;;3.33;1.90;;;;;;;;;;5047120;28;20732;-82
2023/03/04 09:34:08;;;;;;;2.33;1.67;;;;;;;;;;5054556;28;20208;-81
2023/03/04 09:36:35;;;;;;;3.95;2.10;;;;;;;;;;5054307;28;20227;-84
2023/03/04 09:39:04;;;;;;;2.92;1.95;;;;;;;;;;5054393;28;20288;-82
2023/03/04 09:41:39;;;;;;;2.63;1.52;;;;;;;;;;5055207;28;20212;-83
2023/03/04 09:44:15;;;;;;;2.95;1.42;;;;;;;;;;5055111;28;20223;-83
2023/03/04 09:46:44;;;;;;;3.10;1.50;;;;;;;;;;5054249;28;20197;-81
2023/03/04 09:49:14;;;;;;;2.83;1.88;;;;;;;;;;5054595;28;20207;-81
2023/03/04 09:51:49;;;;;;;1.75;1.52;;;;;;;;;;5054356;28;20205;-83
2023/03/04 09:54:24;;;;;;;3.22;1.70;;;;;;;;;;5055023;28;20211;-82
2023/03/04 09:56:52;;;;;;;2.22;1.38;;;;;;;;;;5054941;28;20231;-83
2023/03/04 09:59:25;;;;;;;7.40;2.03;;;;;;;;;;5055098;28;20283;-81
2023/03/04 10:01:55;;;;;;;3.20;1.60;;;;;;;;;;5055881;28;20212;-82
2023/03/04 10:04:33;;;;;;;3.83;1.75;;;;;;;;;;5055929;28;20205;-83
2023/03/04 10:07:01;;;;;;;3.10;2.80;;;;;;;;;;5055843;28;20219;-84
2023/03/04 10:09:33;;;;;;;2.35;2.00;;;;;;;;;;5055311;28;20280;-82
2023/03/04 10:12:04;;;;;;;2.22;1.60;;;;;;;;;;5057286;28;20205;-83
2023/03/04 10:14:37;;;;;;;3.38;1.60;;;;;;;;;;5056890;28;20265;-83
2023/03/04 10:17:12;;;;;;;1.70;1.17;;;;;;;;;;5056519;28;20221;-83
2023/03/04 10:19:53;;;;;;;3.15;1.65;;;;;;;;;;5057048;28;20213;-83
2023/03/04 10:22:30;;;;;;;3.67;2.03;;;;;;;;;;5056983;28;20201;-84
2023/03/04 10:25:05;;;;;;;3.40;2.20;;;;;;;;;;5057443;28;20225;-84
2023/03/04 10:27:33;;;;;;;4.32;1.98;;;;;;;;;;5058247;28;20201;-85
2023/03/04 10:30:01;;;;;;;2.45;1.75;;;;;;;;;;5055662;28;20226;-83
2023/03/04 10:32:30;;;;;;;2.83;1.92;;;;;;;;;;5049570;28;20236;-83
2023/03/04 10:34:59;;;;;;;4.20;1.95;;;;;;;;;;5056295;28;20205;-82
2023/03/04 10:37:45;;;;;;;1.90;1.55;;;;;;;;;;5055133;28;20308;-82
2023/03/04 10:40:22;;;;;;;1.50;1.40;;;;;;;;;;5055949;28;20263;-84
2023/03/04 10:42:50;;;;;;;2.42;1.90;;;;;;;;;;5056082;28;20853;-83
2023/03/04 10:45:23;;;;;;;4.35;1.67;;;;;;;;;;5056243;28;20780;-82
2023/03/04 10:47:56;;;;;;;3.83;1.70;;;;;;;;;;5056831;28;20261;-83
2023/03/04 10:50:27;;;;;;;2.10;1.55;;;;;;;;;;5057478;28;20304;-83
2023/03/04 10:52:55;;;;;;;2.45;1.60;;;;;;;;;;5058470;28;20746;-83
2023/03/04 10:55:26;;;;;;;1.67;1.40;;;;;;;;;;5058193;28;20205;-82
2023/03/04 10:57:56;;;;;;;3.55;1.83;;;;;;;;;;5058238;28;20672;-82
2023/03/04 11:00:32;;;;;;;1.90;1.30;;;;;;;;;;5057792;28;20608;-83
2023/03/04 11:03:34;;;;;;;3.05;1.05;;;;;;;;;;5058765;28;20205;-83
2023/03/04 11:06:21;;;;;;;1.38;1.27;;;;;;;;;;4975983;28;20196;-84
2023/03/04 11:08:55;;;;;;;1.60;1.33;;;;;;;;;;5051347;28;20233;-83
2023/03/04 11:11:33;;;;;;;2.63;1.17;;;;;;;;;;5057841;28;20221;-81
2023/03/04 11:14:04;;;;;;;3.72;1.25;;;;;;;;;;5057834;28;20579;-82
2023/03/04 11:16:33;;;;;;;1.52;1.42;;;;;;;;;;5057655;28;20221;-84
2023/03/04 11:19:05;;;;;;;1.65;1.52;;;;;;;;;;5057132;28;20653;-84
2023/03/04 11:21:39;;;;;;;1.60;1.50;;;;;;;;;;5056530;28;20632;-82
2023/03/04 11:24:14;;;;;;;2.35;1.25;;;;;;;;;;5055931;28;20207;-81
2023/03/04 11:26:45;;;;;;;1.92;1.30;;;;;;;;;;5055759;28;20209;-83
2023/03/04 11:29:16;;;;;;;1.10;1.00;;;;;;;;;;5054919;28;20231;-80
2023/03/04 11:31:49;;;;;;;1.40;1.05;;;;;;;;;;5055507;28;20178;-82
2023/03/04 11:34:24;;;;;;;1.75;1.00;;;;;;;;;;5054398;28;20210;-83
2023/03/04 11:36:57;;;;;;;1.35;1.20;;;;;;;;;;5053772;28;20221;-82
2023/03/04 11:39:31;;;;;;;1.15;1.08;;;;;;;;;;5078619;22;20225;-83
2023/03/04 11:42:03;;;;;;;3.53;1.30;;;;;;;;;;5038139;28;20305;-82
2023/03/04 11:44:31;;;;;;;1.00;1.00;;;;;;;;;;5039463;28;20182;-83
2023/03/04 11:47:15;;;;;;;1.00;1.00;;;;;;;;;;5038245;28;20253;-82
2023/03/04 11:50:21;;;;;;;0.98;0.98;;;;;;;;;;5039309;28;20250;-82
2023/03/04 11:53:35;;;;;;;1.38;1.23;;;;;;;;;;5037978;28;20644;-82
2023/03/04 11:56:34;;;;;;;1.95;1.10;;;;;;;;;;4957433;29;20625;-82
2023/03/04 11:59:39;;;;;;;1.10;1.00;;;;;;;;;;5036805;28;20267;-82
2023/03/04 12:02:17;;;;;;;1.15;0.90;;;;;;;;;;5038962;28;20301;-81
2023/03/04 12:05:23;;;;;;;0.93;0.93;;;;;;;;;;5037721;28;20305;-82
2023/03/04 12:08:20;;;;;;;1.80;1.00;;;;;;;;;;5038884;28;20630;-81
2023/03/04 12:10:55;;;;;;;0.95;0.90;;;;;;;;;;5038560;28;20248;-82
2023/03/04 12:13:42;;;;;;;1.27;1.17;;;;;;;;;;5039518;28;20214;-81
2023/03/04 12:16:27;;;;;;;1.02;0.98;;;;;;;;;;5038190;28;20309;-82
2023/03/04 12:19:07;;;;;;;1.02;0.98;;;;;;;;;;5038292;28;20633;-82
2023/03/04 12:22:12;;;;;;;0.90;0.90;;;;;;;;;;5039285;28;20218;-82
2023/03/04 12:25:03;;;;;;;1.08;1.02;;;;;;;;;;5039064;28;20313;-81
2023/03/04 12:27:38;;;;;;;0.80;0.80;;;;;;;;;;5044156;28;20229;-81
2023/03/04 12:30:16;;;;;;;0.90;0.90;;;;;;;;;;5042320;28;20590;-82
2023/03/04 12:32:50;;;;;;;0.70;0.70;;;;;;;;;;5042525;28;20718;-81
2023/03/04 12:35:34;;;;;;;1.15;0.80;;;;;;;;;;5042734;28;20225;-81
2023/03/04 12:38:21;;;;;;;0.80;0.80;;;;;;;;;;5041909;28;20206;-82
2023/03/04 12:40:58;;;;;;;1.00;1.00;;;;;;;;;;5041757;28;20206;-81
2023/03/04 12:43:38;;;;;;;1.38;1.27;;;;;;;;;;5041579;28;20299;-83
2023/03/04 12:46:18;;;;;;;1.20;1.10;;;;;;;;;;5039437;28;20722;-82
2023/03/04 12:48:58;;;;;;;0.90;0.90;;;;;;;;;;5041269;28;20205;-81
2023/03/04 12:51:32;;;;;;;0.90;0.90;;;;;;;;;;5042401;28;20213;-82
2023/03/04 12:54:20;;;;;;;1.40;1.30;;;;;;;;;;5042064;28;20279;-82
2023/03/04 12:56:53;;;;;;;1.10;1.10;;;;;;;;;;5041696;28;20183;-82
2023/03/04 12:59:25;;;;;;;1.05;1.05;;;;;;;;;;5041986;28;20273;-81
2023/03/04 13:02:01;;;;;;;0.73;0.73;;;;;;;;;;5042109;28;20190;-82
2023/03/04 13:04:35;;;;;;;1.23;1.13;;;;;;;;;;5042858;28;20182;-82
2023/03/04 13:07:12;;;;;;;1.10;1.10;;;;;;;;;;5044140;28;20849;-82
2023/03/04 13:09:48;;;;;;;1.23;1.13;;;;;;;;;;5041453;28;20615;-82
2023/03/04 13:12:19;;;;;;;1.30;1.10;;;;;;;;;;5042000;28;20260;-80
2023/03/04 13:15:32;;;;;;;2.40;1.83;;;;;;;;;;5039846;28;20245;-82
2023/03/04 13:18:02;;;;;;;1.40;1.30;;;;;;;;;;5039936;28;20212;-83
2023/03/04 13:20:37;;;;;;;1.58;1.10;;;;;;;;;;5041272;28;20202;-82
2023/03/04 13:23:25;;;;;;;1.63;1.52;;;;;;;;;;5042284;28;20186;-82
2023/03/04 13:26:23;;;;;;;2.78;1.70;;;;;;;;;;5039421;28;20222;-82
2023/03/04 13:29:14;;;;;;;2.15;1.70;;;;;;;;;;5040000;28;20198;-81
2023/03/04 13:32:02;;;;;;;1.55;1.45;;;;;;;;;;5031295;28;20218;-82
2023/03/04 13:34:48;;;;;;;2.10;1.63;;;;;;;;;;5037717;28;20209;-82
2023/03/04 13:37:32;;;;;;;1.63;1.52;;;;;;;;;;5037923;28;20206;-82
2023/03/04 13:40:32;;;;;;;1.60;1.50;;;;;;;;;;5037191;28;20209;-83
2023/03/04 13:43:26;;;;;;;1.77;1.67;;;;;;;;;;5038473;28;20206;-82
2023/03/04 13:45:55;;;;;;;1.40;1.30;;;;;;;;;;5039884;28;20481;-82
2023/03/04 13:48:31;;;;;;;2.08;1.35;;;;;;;;;;5038734;28;20194;-82
2023/03/04 13:50:59;;;;;;;1.67;1.58;;;;;;;;;;5037799;28;20205;-81
2023/03/04 13:53:45;;;;;;;1.63;1.50;;;;;;;;;;5038499;28;20238;-80
2023/03/04 13:56:28;;;;;;;2.00;1.52;;;;;;;;;;5036660;28;20308;-81
2023/03/04 13:59:18;;;;;;;3.40;1.45;;;;;;;;;;5035789;28;20210;-82
2023/03/04 14:01:59;;;;;;;1.65;1.55;;;;;;;;;;5040015;28;20280;-81
2023/03/04 14:04:36;;;;;;;1.42;1.23;;;;;;;;;;5038775;28;20193;-81
2023/03/04 14:07:17;;;;;;;1.48;1.38;;;;;;;;;;5017462;28;20191;-81
2023/03/04 14:09:56;;;;;;;3.53;1.88;;;;;;;;;;5035180;28;20233;-82
2023/03/04 14:12:24;;;;;;;1.50;1.40;;;;;;;;;;5037647;28;20197;-81
2023/03/04 14:14:55;;;;;;;2.65;1.83;;;;;;;;;;5038627;28;20226;-83
2023/03/04 14:17:27;;;;;;;1.67;1.27;;;;;;;;;;5037610;28;20232;-81
2023/03/04 14:19:55;;;;;;;2.55;1.75;;;;;;;;;;5037556;28;20191;-81
2023/03/04 14:22:26;;;;;;;1.73;1.40;;;;;;;;;;5040471;28;20198;-81
2023/03/04 14:24:59;;;;;;;1.60;1.50;;;;;;;;;;5041335;28;20226;-81
2023/03/04 14:27:27;;;;;;;3.95;1.52;;;;;;;;;;5040793;28;20226;-81
2023/03/04 14:30:00;;;;;;;4.50;1.70;;;;;;;;;;5040813;28;20746;-81
2023/03/04 14:32:30;;;;;;;2.42;1.67;;;;;;;;;;5042009;28;20233;-81
2023/03/04 14:35:01;;;;;;;3.33;1.60;;;;;;;;;;5040810;28;20684;-80
2023/03/04 14:37:37;;;;;;;3.20;1.60;;;;;;;;;;5041312;28;20252;-82
2023/03/04 14:40:07;;;;;;;3.13;1.70;;;;;;;;;;5037441;28;20213;-81
2023/03/04 14:42:39;;;;;;;3.22;2.25;;;;;;;;;;5038603;28;20656;-81
2023/03/04 14:45:09;;;;;;;2.72;2.00;;;;;;;;;;5038964;28;20211;-81
2023/03/04 14:47:44;;;;;;;4.32;1.65;;;;;;;;;;5037645;28;20198;-81
2023/03/04 14:50:16;;;;;;;4.63;1.50;;;;;;;;;;5039520;28;20239;-84
2023/03/04 14:52:47;;;;;;;2.30;1.88;;;;;;;;;;5036789;28;20248;-83
2023/03/04 14:55:22;;;;;;;2.97;2.00;;;;;;;;;;5035606;28;20229;-84
2023/03/04 14:57:56;;;;;;;4.80;1.77;;;;;;;;;;5036030;28;20193;-83
2023/03/04 15:00:29;;;;;;;2.00;1.48;;;;;;;;;;5035831;28;20209;-83
2023/03/04 15:03:00;;;;;;;2.78;1.80;;;;;;;;;;5035083;28;20191;-84
2023/03/04 15:05:31;;;;;;;2.63;2.28;;;;;;;;;;5035352;28;20250;-83
2023/03/04 15:08:00;;;;;;;2.97;1.70;;;;;;;;;;5035161;28;20281;-84